Delta Reefer — D6EW9 — position and weather

sailwx.info

Track history (hours):
 
Tides and Currents Weather Stations Pressure Air Temp Water Temp Dewpoint Dewpoint Depression Visibility Wind Speed Wind Dir Waves Ship Positions

Delta Reefer

Last reported at 2018-Mar-24 12:22 UTC. Time now 2018-May-23 15:08 UTC.
Position S 05°36' E 011°04'.
Warning: this ship's position is months out of date.

Length 90 m; draft 3.4 m.

Type: Cargo ship. MMSI: 616757000.

Date/timePositionNaut miles runAvg speedWind from/ knotsBaromVisibWave heightAir tempDewpointWater temp
2018-Mar-24 12:22S 05°36' E 011°04'3 7.3
2018-Mar-24 11:58S 05°33' E 011°05'4 7.4
2018-Mar-24 11:30S 05°30' E 011°07'4 7.3
2018-Mar-24 11:00S 05°27' E 011°09'4 7.3
2018-Mar-24 10:29S 05°24' E 011°10'4 7.5
2018-Mar-24 10:00S 05°20' E 011°12'4 7.4
2018-Mar-24 09:30S 05°17' E 011°14'4 7.4
2018-Mar-24 09:00S 05°14' E 011°16'4 7.4
2018-Mar-24 08:28S 05°11' E 011°17'3 7.1
2018-Mar-24 08:00S 05°08' E 011°19'1 2.8
2018-Mar-24 07:30S 05°06' E 011°19'1 2.6
2018-Mar-24 07:00S 05°05' E 011°20'1 2.4
2018-Mar-24 06:27S 05°04' E 011°20'1 2.1
2018-Mar-24 06:00S 05°03' E 011°20'1 1.9
2018-Mar-24 05:14S 05°01' E 011°19'2 7.0
2018-Mar-24 04:58S 05°01' E 011°18'3 7.0
2018-Mar-24 04:30S 04°59' E 011°15'  
Track history (hours):
 
Tides and Currents Weather Stations Pressure Air Temp Water Temp Dewpoint Dewpoint Depression Visibility Wind Speed Wind Dir Waves Ship Positions

Delta Reefer

Last reported at 2018-Mar-24 12:22 UTC. Time now 2018-May-23 15:08 UTC.
Position S 05°36' E 011°04'.
Warning: this ship's position is months out of date.

Length 90 m; draft 3.4 m.

Type: Cargo ship. MMSI: 616757000.

Date/timePositionNaut miles runAvg speedWind from/ knotsBaromVisibWave heightAir tempDewpointWater temp
2018-Mar-24 12:22S 05°36' E 011°04'3 7.3
2018-Mar-24 11:58S 05°33' E 011°05'4 7.4
2018-Mar-24 11:30S 05°30' E 011°07'4 7.3
2018-Mar-24 11:00S 05°27' E 011°09'4 7.3
2018-Mar-24 10:29S 05°24' E 011°10'4 7.5
2018-Mar-24 10:00S 05°20' E 011°12'4 7.4
2018-Mar-24 09:30S 05°17' E 011°14'4 7.4
2018-Mar-24 09:00S 05°14' E 011°16'4 7.4
2018-Mar-24 08:28S 05°11' E 011°17'3 7.1
2018-Mar-24 08:00S 05°08' E 011°19'1 2.8
2018-Mar-24 07:30S 05°06' E 011°19'1 2.6
2018-Mar-24 07:00S 05°05' E 011°20'1 2.4
2018-Mar-24 06:27S 05°04' E 011°20'1 2.1
2018-Mar-24 06:00S 05°03' E 011°20'1 1.9
2018-Mar-24 05:14S 05°01' E 011°19'2 7.0
2018-Mar-24 04:58S 05°01' E 011°18'3 7.0
2018-Mar-24 04:30S 04°59' E 011°15'  

Dump ship's entire track history